Terminal Aerodrome Forecast
Issued by NWS

Home | Current Version | Previous Version | Text Only | Print | Product List | Glossary On
Versions: 1 2 3 4 5 6 7 8 9 10 11 12 13
000
FTUS45 KRIW 302322
TAFLND
TAF
KLND 302322Z 3100/3124 30012G20KT P6SM SCT060 BKN090
     FM310200 36010KT P6SM SCT050 BKN100
     FM310800 29005KT P6SM BKN040
     FM311500 05005KT P6SM FEW060=

USA.gov is the U.S. government's official web portal to all federal, state and local government web resources and services.